Terminal Aerodrome Forecast
Issued by NWS

Current Version | Previous Version | Text Only | Print | Product List | Glossary On
Versions: 1 2 3 4 5 6 7 8 9 10 11 12 13 14 15 16 17 18
000
FTUS42 KTBW 042300
TAFPIE
TAF
KPIE 042334Z 0500/0524 21009KT P6SM FEW250
     FM050400 16006KT P6SM FEW250
     FM050900 17005KT 6SM BR FEW001 SCT005
     FM051700 18011KT P6SM SCT025
     FM052000 21010KT P6SM SCT050=

USA.gov is the U.S. government's official web portal to all federal, state and local government web resources and services.